createdAt,value
2022-10-01T00:02:45.387Z,5.83
2022-10-01T00:05:32.852Z,5.90
2022-10-01T00:08:20.305Z,6.53
2022-10-01T00:11:09.731Z,6.37
2022-10-01T00:13:57.797Z,5.93
2022-10-01T00:16:45.275Z,5.77
2022-10-01T00:19:32.762Z,6.10
2022-10-01T00:22:20.228Z,7.00
2022-10-01T00:25:07.642Z,7.10
2022-10-01T00:27:55.452Z,6.87
2022-10-01T00:30:48.911Z,6.63
2022-10-01T00:33:36.823Z,6.73
2022-10-01T00:36:24.911Z,6.10
2022-10-01T00:39:12.723Z,6.20
2022-10-01T00:42:00.127Z,5.73
2022-10-01T00:44:49.252Z,5.10
2022-10-01T00:47:46.881Z,5.27
2022-10-01T00:50:35.019Z,5.13
2022-10-01T00:53:24.411Z,5.20
2022-10-01T00:56:11.863Z,4.63
2022-10-01T00:59:00.207Z,4.77
2022-10-01T01:01:48.780Z,3.90
2022-10-01T01:04:36.037Z,4.60
2022-10-01T01:07:23.600Z,3.70
2022-10-01T01:10:13.281Z,3.60
2022-10-01T01:13:09.927Z,3.70
2022-10-01T01:19:41.448Z,3.27
2022-10-01T01:22:34.158Z,3.20
2022-10-01T01:25:29.959Z,3.00
2022-10-01T01:28:31.856Z,3.00
2022-10-01T01:31:25.088Z,3.10
2022-10-01T01:34:16.482Z,3.10
2022-10-01T01:37:11.978Z,3.03
2022-10-01T01:40:01.688Z,3.10
2022-10-01T01:42:50.597Z,3.07
2022-10-01T01:45:40.364Z,3.13
2022-10-01T01:48:30.835Z,2.90
2022-10-01T01:51:32.891Z,2.67
2022-10-01T01:54:20.648Z,3.03
2022-10-01T01:57:08.794Z,2.80
2022-10-01T01:59:56.302Z,2.73
2022-10-01T02:02:50.153Z,2.53
2022-10-01T02:05:46.283Z,2.83
2022-10-01T02:08:40.996Z,2.40
2022-10-01T02:11:38.081Z,2.72
2022-10-01T02:24:24.628Z,2.33
2022-10-01T02:27:50.776Z,2.30
2022-10-01T02:30:40.028Z,2.15
2022-10-01T02:40:06.767Z,1.97
2022-10-01T02:43:05.212Z,2.10
2022-10-01T02:46:00.508Z,2.10
2022-10-01T02:48:49.395Z,1.92
2022-10-01T02:51:43.059Z,2.20
2022-10-01T02:54:38.927Z,2.47
2022-10-01T02:57:27.590Z,2.30
2022-10-01T03:00:21.259Z,2.57
2022-10-01T03:03:08.830Z,2.40
2022-10-01T03:05:55.995Z,2.47
2022-10-01T03:08:43.407Z,2.63
2022-10-01T03:11:30.754Z,2.83
2022-10-01T03:14:19.008Z,2.67
2022-10-01T03:17:07.280Z,3.00
2022-10-01T03:19:54.895Z,3.00
2022-10-01T03:22:45.832Z,3.33
2022-10-01T03:25:43.595Z,3.57
2022-10-01T03:28:33.756Z,3.40
2022-10-01T03:31:22.480Z,3.23
2022-10-01T03:34:13.856Z,3.70
2022-10-01T03:37:01.643Z,3.30
2022-10-01T03:40:22.819Z,3.50
2022-10-01T03:47:13.242Z,3.65
2022-10-01T03:50:09.288Z,3.37
2022-10-01T03:53:06.019Z,3.80
2022-10-01T03:56:09.167Z,3.30
2022-10-01T03:59:01.546Z,3.27
2022-10-01T04:01:49.122Z,3.40
2022-10-01T04:04:40.208Z,3.33
2022-10-01T04:07:38.179Z,2.97
2022-10-01T04:10:26.458Z,3.10
2022-10-01T04:13:26.325Z,2.97
2022-10-01T04:16:24.343Z,2.70
2022-10-01T04:19:43.053Z,3.47
2022-10-01T04:22:47.187Z,2.40
2022-10-01T04:25:35.144Z,2.50
2022-10-01T04:28:34.060Z,2.77
2022-10-01T04:32:17.780Z,2.70
2022-10-01T04:34:57.611Z,2.50
2022-10-01T04:37:48.704Z,2.67
2022-10-01T04:40:45.722Z,3.00
2022-10-01T04:43:41.915Z,2.37
2022-10-01T04:49:49.329Z,2.10
2022-10-01T04:52:38.296Z,2.10
2022-10-01T04:55:39.104Z,2.30
2022-10-01T04:58:39.010Z,2.03
2022-10-01T05:05:05.482Z,2.23
2022-10-01T05:11:03.614Z,2.23
2022-10-01T05:14:06.784Z,2.10
2022-10-01T05:17:20.115Z,2.13
2022-10-01T05:20:27.203Z,2.10
2022-10-01T05:23:28.455Z,2.20
2022-10-01T05:26:26.316Z,2.13
2022-10-01T05:29:19.898Z,1.87
2022-10-01T05:32:16.324Z,1.60
2022-10-01T05:35:12.725Z,2.00
2022-10-01T05:38:03.046Z,1.97
2022-10-01T05:40:50.528Z,1.63
2022-10-01T05:55:50.138Z,1.87
2022-10-01T05:58:38.139Z,2.10
2022-10-01T06:01:25.600Z,2.33
2022-10-01T06:14:04.258Z,2.37
2022-10-01T06:26:08.870Z,2.20
2022-10-01T06:28:56.708Z,2.40
2022-10-01T06:31:44.639Z,2.83
2022-10-01T06:34:32.080Z,1.77
2022-10-01T07:57:19.961Z,2.73
2022-10-01T08:17:01.885Z,2.87
2022-10-01T08:19:49.087Z,2.37
2022-10-01T08:22:41.107Z,2.50
2022-10-01T08:25:29.960Z,2.33
2022-10-01T08:28:17.665Z,2.37
2022-10-01T08:31:09.017Z,2.20
2022-10-01T08:33:56.686Z,2.17
2022-10-01T08:43:31.372Z,2.33
2022-10-01T08:46:24.401Z,2.20
2022-10-01T08:49:26.333Z,2.57
2022-10-01T08:52:22.376Z,2.57
2022-10-01T09:28:41.221Z,2.57
2022-10-01T09:31:39.639Z,2.83
2022-10-01T09:34:41.301Z,2.90
2022-10-01T09:47:22.853Z,2.70
2022-10-01T09:56:29.128Z,3.83
2022-10-01T10:05:50.927Z,2.97
2022-10-01T10:08:40.259Z,2.60
2022-10-01T10:18:22.999Z,3.03
2022-10-01T10:21:25.944Z,2.37
2022-10-01T10:24:31.756Z,2.90
2022-10-01T10:33:26.397Z,2.77
2022-10-01T10:36:16.588Z,2.20
2022-10-01T10:48:45.929Z,2.47
2022-10-01T10:54:21.859Z,2.40
2022-10-01T11:03:22.532Z,2.70
2022-10-01T11:06:12.247Z,2.27
2022-10-01T11:23:51.106Z,2.40
2022-10-01T11:26:44.249Z,2.07
2022-10-01T11:36:49.222Z,2.80
2022-10-01T11:39:43.291Z,3.00
2022-10-01T11:45:52.278Z,2.13
2022-10-01T11:52:27.865Z,2.83
2022-10-01T12:12:32.543Z,2.77
2022-10-01T12:15:56.351Z,2.30
2022-10-01T12:22:24.492Z,2.07
2022-10-01T12:25:15.730Z,2.20
2022-10-01T12:28:19.522Z,2.30
2022-10-01T12:31:30.748Z,3.03
2022-10-01T12:34:22.455Z,2.27
2022-10-01T12:52:55.056Z,2.47
2022-10-01T12:56:40.081Z,2.03
2022-10-01T13:00:20.363Z,2.60
2022-10-01T13:15:51.186Z,2.30
2022-10-01T13:19:27.904Z,2.27
2022-10-01T13:22:45.747Z,2.70
2022-10-01T13:26:12.853Z,2.30
2022-10-01T13:29:22.450Z,2.40
2022-10-01T13:32:38.940Z,2.50
2022-10-01T13:38:39.868Z,2.47
2022-10-01T13:41:39.889Z,2.70
2022-10-01T13:55:06.491Z,2.03
2022-10-01T13:58:02.865Z,2.80
2022-10-01T14:00:53.465Z,2.93
2022-10-01T14:04:13.360Z,2.33
2022-10-01T14:33:48.552Z,2.27
2022-10-01T14:51:56.350Z,2.20
2022-10-01T14:57:07.956Z,2.63
2022-10-01T15:30:42.892Z,2.03
2022-10-01T15:47:24.843Z,2.40
2022-10-01T15:50:27.074Z,2.27
2022-10-01T15:53:21.421Z,2.63
2022-10-01T16:05:47.824Z,1.67
2022-10-01T16:08:59.821Z,2.00
2022-10-01T16:12:36.818Z,2.00
2022-10-01T16:19:00.205Z,2.10
2022-10-01T16:22:27.413Z,1.50
2022-10-01T16:25:51.057Z,1.50
2022-10-01T16:28:43.597Z,2.00
2022-10-01T16:31:35.297Z,1.40
2022-10-01T16:34:40.301Z,1.60
2022-10-01T16:37:35.230Z,1.58
2022-10-01T16:40:29.420Z,2.03
2022-10-01T16:43:27.373Z,1.67
2022-10-01T16:46:17.529Z,1.70
2022-10-01T16:49:20.585Z,2.43
2022-10-01T16:52:16.027Z,2.87
2022-10-01T16:55:44.306Z,2.13
2022-10-01T16:58:47.137Z,2.43
2022-10-01T17:01:48.420Z,2.13
2022-10-01T17:04:47.652Z,1.97
2022-10-01T17:07:38.762Z,3.27
2022-10-01T17:10:41.151Z,2.90
2022-10-01T17:13:34.273Z,2.53
2022-10-01T17:16:51.782Z,2.67
2022-10-01T17:19:43.799Z,3.38
2022-10-01T17:22:41.941Z,2.33
2022-10-01T17:25:45.345Z,2.33
2022-10-01T17:28:34.588Z,3.23
2022-10-01T17:34:37.102Z,2.87
2022-10-01T17:40:56.947Z,3.23
2022-10-01T17:47:29.763Z,3.03
2022-10-01T17:50:22.770Z,2.13
2022-10-01T17:53:16.232Z,2.70
2022-10-01T17:56:13.648Z,2.43
2022-10-01T17:59:01.429Z,2.50
2022-10-01T18:01:50.030Z,3.17
2022-10-01T18:04:49.962Z,2.77
2022-10-01T18:07:55.551Z,2.80
2022-10-01T18:10:50.799Z,3.00
2022-10-01T18:13:40.130Z,2.90
2022-10-01T18:16:34.591Z,2.57
2022-10-01T18:19:52.794Z,2.77
2022-10-01T18:23:02.940Z,2.63
2022-10-01T18:29:37.317Z,3.53
2022-10-01T18:33:01.290Z,2.47
2022-10-01T18:36:09.210Z,2.67
2022-10-01T18:39:17.908Z,3.40
2022-10-01T18:42:54.301Z,3.20
2022-10-01T18:46:04.473Z,1.90
2022-10-01T18:49:44.519Z,2.20
2022-10-01T18:52:48.109Z,2.90
2022-10-01T18:55:53.462Z,2.67
2022-10-01T18:59:43.429Z,2.63
2022-10-01T19:03:04.411Z,1.88
2022-10-01T19:06:33.317Z,2.60
2022-10-01T19:09:44.527Z,2.10
2022-10-01T19:16:07.969Z,2.40
2022-10-01T19:19:21.796Z,1.73
2022-10-01T19:22:43.351Z,2.40
2022-10-01T19:25:44.960Z,2.37
2022-10-01T19:28:55.423Z,2.87
2022-10-01T19:32:27.067Z,2.83
2022-10-01T19:35:22.271Z,3.22
2022-10-01T19:38:23.021Z,2.87
2022-10-01T19:41:43.246Z,2.60
2022-10-01T19:45:06.481Z,2.87
2022-10-01T19:57:27.762Z,2.20
2022-10-01T20:00:42.860Z,2.40
2022-10-01T20:03:41.125Z,2.57
2022-10-01T20:07:08.422Z,2.43
2022-10-01T20:10:32.617Z,2.53
2022-10-01T20:13:52.442Z,3.13
2022-10-01T20:17:23.913Z,2.20
